sensor_id;sensor_type;location;lat;lon;timestamp;pressure;altitude;pressure_sealevel;temperature;humidity
30819;BME280;17546;42.674;23.284;2023-02-28T00:00:29;95185.69;;;15.22;49.56
30819;BME280;17546;42.674;23.284;2023-02-28T00:02:54;95178.94;;;15.00;49.49
30819;BME280;17546;42.674;23.284;2023-02-28T00:05:22;95180.13;;;15.16;49.67
30819;BME280;17546;42.674;23.284;2023-02-28T00:07:49;95177.91;;;15.03;49.70
30819;BME280;17546;42.674;23.284;2023-02-28T00:10:20;95182.78;;;14.97;49.93
30819;BME280;17546;42.674;23.284;2023-02-28T00:12:54;95189.72;;;15.21;49.77
30819;BME280;17546;42.674;23.284;2023-02-28T00:15:22;95176.88;;;15.06;49.65
30819;BME280;17546;42.674;23.284;2023-02-28T00:17:49;95183.06;;;14.88;50.02
30819;BME280;17546;42.674;23.284;2023-02-28T00:20:15;95188.69;;;14.77;50.19
30819;BME280;17546;42.674;23.284;2023-02-28T00:22:46;95194.69;;;14.92;49.65
30819;BME280;17546;42.674;23.284;2023-02-28T00:25:16;95204.91;;;14.84;50.06
30819;BME280;17546;42.674;23.284;2023-02-28T00:27:43;95209.31;;;15.09;49.69
30819;BME280;17546;42.674;23.284;2023-02-28T00:30:12;95199.88;;;15.24;49.47
30819;BME280;17546;42.674;23.284;2023-02-28T00:32:38;95195.03;;;15.24;49.16
30819;BME280;17546;42.674;23.284;2023-02-28T00:35:04;95193.63;;;15.06;49.32
30819;BME280;17546;42.674;23.284;2023-02-28T00:37:35;95204.75;;;15.12;49.11
30819;BME280;17546;42.674;23.284;2023-02-28T00:40:00;95190.28;;;15.14;48.88
30819;BME280;17546;42.674;23.284;2023-02-28T00:42:26;95207.88;;;15.39;48.84
30819;BME280;17546;42.674;23.284;2023-02-28T00:44:51;95213.69;;;15.46;48.39
30819;BME280;17546;42.674;23.284;2023-02-28T00:47:17;95195.13;;;15.07;48.90
30819;BME280;17546;42.674;23.284;2023-02-28T00:49:43;95187.50;;;14.61;49.49
30819;BME280;17546;42.674;23.284;2023-02-28T00:52:08;95200.72;;;15.07;48.87
30819;BME280;17546;42.674;23.284;2023-02-28T00:54:34;95197.84;;;15.19;48.76
30819;BME280;17546;42.674;23.284;2023-02-28T00:57:00;95179.78;;;15.25;48.99
30819;BME280;17546;42.674;23.284;2023-02-28T00:59:25;95195.03;;;15.30;48.93
30819;BME280;17546;42.674;23.284;2023-02-28T01:01:51;95191.50;;;15.24;49.13
30819;BME280;17546;42.674;23.284;2023-02-28T01:04:17;95198.81;;;15.33;48.92
30819;BME280;17546;42.674;23.284;2023-02-28T01:06:43;95197.28;;;14.84;49.68
30819;BME280;17546;42.674;23.284;2023-02-28T01:09:08;95191.41;;;14.88;49.74
30819;BME280;17546;42.674;23.284;2023-02-28T01:11:34;95187.28;;;15.06;49.24
30819;BME280;17546;42.674;23.284;2023-02-28T01:14:00;95181.72;;;15.06;49.30
30819;BME280;17546;42.674;23.284;2023-02-28T01:16:27;95190.34;;;15.08;49.11
30819;BME280;17546;42.674;23.284;2023-02-28T01:18:53;95180.75;;;14.98;49.34
30819;BME280;17546;42.674;23.284;2023-02-28T01:21:20;95191.84;;;15.03;49.46
30819;BME280;17546;42.674;23.284;2023-02-28T01:23:47;95195.13;;;15.07;49.14
30819;BME280;17546;42.674;23.284;2023-02-28T01:26:18;95189.03;;;15.09;49.19
30819;BME280;17546;42.674;23.284;2023-02-28T01:28:44;95187.63;;;14.91;49.42
30819;BME280;17546;42.674;23.284;2023-02-28T01:31:10;95181.97;;;15.02;49.22
30819;BME280;17546;42.674;23.284;2023-02-28T01:33:36;95187.97;;;14.71;49.39
30819;BME280;17546;42.674;23.284;2023-02-28T01:36:10;95188.63;;;14.01;50.27
30819;BME280;17546;42.674;23.284;2023-02-28T01:38:36;95199.47;;;14.27;49.46
30819;BME280;17546;42.674;23.284;2023-02-28T01:41:02;95191.59;;;14.37;49.32
30819;BME280;17546;42.674;23.284;2023-02-28T01:43:31;95199.44;;;14.39;49.11
30819;BME280;17546;42.674;23.284;2023-02-28T01:45:58;95196.97;;;14.18;49.06
30819;BME280;17546;42.674;23.284;2023-02-28T01:48:31;95200.50;;;14.24;48.69
30819;BME280;17546;42.674;23.284;2023-02-28T01:51:02;95211.66;;;14.24;48.77
30819;BME280;17546;42.674;23.284;2023-02-28T01:53:35;95198.75;;;14.10;49.08
30819;BME280;17546;42.674;23.284;2023-02-28T01:56:04;95208.41;;;13.75;49.72
30819;BME280;17546;42.674;23.284;2023-02-28T01:58:31;95198.53;;;13.52;50.35
30819;BME280;17546;42.674;23.284;2023-02-28T02:00:56;95196.00;;;13.54;50.49
30819;BME280;17546;42.674;23.284;2023-02-28T02:03:23;95201.53;;;13.31;51.38
30819;BME280;17546;42.674;23.284;2023-02-28T02:05:48;95187.88;;;13.33;51.37
30819;BME280;17546;42.674;23.284;2023-02-28T02:08:20;95204.59;;;13.56;51.10
30819;BME280;17546;42.674;23.284;2023-02-28T02:10:56;95193.97;;;13.49;51.51
30819;BME280;17546;42.674;23.284;2023-02-28T02:19:01;95188.16;;;13.86;50.40
30819;BME280;17546;42.674;23.284;2023-02-28T02:24:58;95193.94;;;14.16;50.02
30819;BME280;17546;42.674;23.284;2023-02-28T02:30:14;95189.41;;;13.91;50.59
30819;BME280;17546;42.674;23.284;2023-02-28T02:36:18;95192.97;;;13.63;51.08
30819;BME280;17546;42.674;23.284;2023-02-28T02:38:49;95195.47;;;13.44;51.43
30819;BME280;17546;42.674;23.284;2023-02-28T02:43:51;95204.09;;;13.74;51.11
30819;BME280;17546;42.674;23.284;2023-02-28T02:46:26;95196.25;;;13.84;50.96
30819;BME280;17546;42.674;23.284;2023-02-28T02:48:55;95202.56;;;13.62;51.49
30819;BME280;17546;42.674;23.284;2023-02-28T02:51:23;95205.59;;;13.87;50.92
30819;BME280;17546;42.674;23.284;2023-02-28T02:54:03;95197.78;;;13.68;51.23
30819;BME280;17546;42.674;23.284;2023-02-28T02:56:31;95198.03;;;13.70;51.30
30819;BME280;17546;42.674;23.284;2023-02-28T02:59:09;95201.06;;;13.72;51.27
30819;BME280;17546;42.674;23.284;2023-02-28T03:01:37;95202.31;;;13.77;51.04
30819;BME280;17546;42.674;23.284;2023-02-28T03:04:13;95218.78;;;13.92;50.75
30819;BME280;17546;42.674;23.284;2023-02-28T03:06:45;95203.59;;;13.81;51.09
30819;BME280;17546;42.674;23.284;2023-02-28T03:09:11;95217.00;;;13.83;51.11
30819;BME280;17546;42.674;23.284;2023-02-28T03:11:37;95218.25;;;13.99;50.69
30819;BME280;17546;42.674;23.284;2023-02-28T03:14:25;95223.34;;;13.83;50.92
30819;BME280;17546;42.674;23.284;2023-02-28T03:17:17;95225.84;;;13.93;50.54
30819;BME280;17546;42.674;23.284;2023-02-28T03:25:18;95239.03;;;13.92;50.97
30819;BME280;17546;42.674;23.284;2023-02-28T03:28:10;95237.25;;;14.12;50.59
30819;BME280;17546;42.674;23.284;2023-02-28T03:31:15;95248.91;;;14.16;50.40
30819;BME280;17546;42.674;23.284;2023-02-28T03:34:34;95246.06;;;14.38;50.23
30819;BME280;17546;42.674;23.284;2023-02-28T03:37:05;95243.06;;;14.14;50.37
30819;BME280;17546;42.674;23.284;2023-02-28T03:39:45;95245.31;;;14.38;49.88
30819;BME280;17546;42.674;23.284;2023-02-28T03:42:15;95246.03;;;14.50;49.69
30819;BME280;17546;42.674;23.284;2023-02-28T03:44:46;95255.69;;;14.43;50.01
30819;BME280;17546;42.674;23.284;2023-02-28T03:47:17;95245.09;;;14.13;50.25
30819;BME280;17546;42.674;23.284;2023-02-28T03:50:07;95256.25;;;14.13;50.53
30819;BME280;17546;42.674;23.284;2023-02-28T03:52:40;95252.72;;;14.07;50.73
30819;BME280;17546;42.674;23.284;2023-02-28T03:55:11;95256.97;;;14.31;50.10
30819;BME280;17546;42.674;23.284;2023-02-28T03:57:47;95263.81;;;14.30;50.31
30819;BME280;17546;42.674;23.284;2023-02-28T04:00:37;95268.84;;;14.48;49.80
30819;BME280;17546;42.674;23.284;2023-02-28T04:03:04;95257.69;;;14.48;49.68
30819;BME280;17546;42.674;23.284;2023-02-28T04:05:33;95261.50;;;14.45;50.04
30819;BME280;17546;42.674;23.284;2023-02-28T04:08:10;95263.59;;;13.99;50.50
30819;BME280;17546;42.674;23.284;2023-02-28T04:10:35;95249.13;;;14.23;50.12
30819;BME280;17546;42.674;23.284;2023-02-28T04:13:01;95254.91;;;14.48;49.78
30819;BME280;17546;42.674;23.284;2023-02-28T04:15:26;95256.22;;;14.24;50.47
30819;BME280;17546;42.674;23.284;2023-02-28T04:17:53;95252.16;;;14.37;50.46
30819;BME280;17546;42.674;23.284;2023-02-28T04:20:19;95249.31;;;14.59;49.72
30819;BME280;17546;42.674;23.284;2023-02-28T04:22:45;95250.09;;;14.54;50.03
30819;BME280;17546;42.674;23.284;2023-02-28T04:25:10;95249.59;;;14.56;49.75
30819;BME280;17546;42.674;23.284;2023-02-28T04:27:36;95250.56;;;14.70;49.47
30819;BME280;17546;42.674;23.284;2023-02-28T04:30:01;95255.47;;;14.35;49.99
30819;BME280;17546;42.674;23.284;2023-02-28T04:32:27;95255.44;;;14.46;49.83
30819;BME280;17546;42.674;23.284;2023-02-28T04:34:52;95261.22;;;14.54;49.52
30819;BME280;17546;42.674;23.284;2023-02-28T04:37:18;95265.34;;;14.42;50.04
30819;BME280;17546;42.674;23.284;2023-02-28T04:39:44;95266.84;;;14.60;49.68
30819;BME280;17546;42.674;23.284;2023-02-28T04:42:10;95257.22;;;14.55;49.55
30819;BME280;17546;42.674;23.284;2023-02-28T04:44:36;95262.03;;;14.15;50.17
30819;BME280;17546;42.674;23.284;2023-02-28T04:47:01;95268.41;;;12.94;53.23
30819;BME280;17546;42.674;23.284;2023-02-28T04:49:27;95273.47;;;13.83;50.93
30819;BME280;17546;42.674;23.284;2023-02-28T04:51:53;95281.81;;;14.12;50.37
30819;BME280;17546;42.674;23.284;2023-02-28T04:54:19;95280.78;;;13.87;51.05
30819;BME280;17546;42.674;23.284;2023-02-28T04:56:44;95279.03;;;14.06;50.39
30819;BME280;17546;42.674;23.284;2023-02-28T04:59:10;95283.34;;;14.07;50.26
30819;BME280;17546;42.674;23.284;2023-02-28T05:01:36;95288.66;;;13.82;50.76
30819;BME280;17546;42.674;23.284;2023-02-28T05:04:03;95289.66;;;14.08;50.41
30819;BME280;17546;42.674;23.284;2023-02-28T05:06:31;95285.09;;;14.10;50.48
30819;BME280;17546;42.674;23.284;2023-02-28T05:08:57;95289.66;;;14.08;50.16
30819;BME280;17546;42.674;23.284;2023-02-28T05:11:29;95283.06;;;14.27;49.80
30819;BME280;17546;42.674;23.284;2023-02-28T05:13:58;95285.84;;;13.71;50.78
30819;BME280;17546;42.674;23.284;2023-02-28T05:16:24;95288.16;;;13.90;50.49
30819;BME280;17546;42.674;23.284;2023-02-28T05:18:50;95290.94;;;13.95;50.41
30819;BME280;17546;42.674;23.284;2023-02-28T05:21:29;95287.91;;;14.16;50.03
30819;BME280;17546;42.674;23.284;2023-02-28T05:24:05;95299.03;;;14.21;50.21
30819;BME280;17546;42.674;23.284;2023-02-28T05:26:38;95303.84;;;14.26;49.97
30819;BME280;17546;42.674;23.284;2023-02-28T05:29:04;95303.84;;;14.38;49.77
30819;BME280;17546;42.674;23.284;2023-02-28T05:31:30;95304.09;;;14.40;49.83
30819;BME280;17546;42.674;23.284;2023-02-28T05:33:55;95302.56;;;14.44;49.71
30819;BME280;17546;42.674;23.284;2023-02-28T05:36:22;95311.41;;;14.54;49.28
30819;BME280;17546;42.674;23.284;2023-02-28T05:38:48;95319.28;;;14.44;49.36
30819;BME280;17546;42.674;23.284;2023-02-28T05:41:18;95321.56;;;14.46;49.42
30819;BME280;17546;42.674;23.284;2023-02-28T05:43:45;95312.94;;;14.33;49.44
30819;BME280;17546;42.674;23.284;2023-02-28T05:46:12;95317.78;;;14.04;49.84
30819;BME280;17546;42.674;23.284;2023-02-28T05:48:39;95320.81;;;14.34;49.40
30819;BME280;17546;42.674;23.284;2023-02-28T05:51:06;95317.50;;;14.47;49.62
30819;BME280;17546;42.674;23.284;2023-02-28T05:53:32;95314.69;;;14.53;49.17
30819;BME280;17546;42.674;23.284;2023-02-28T05:55:58;95323.59;;;14.40;49.62
30819;BME280;17546;42.674;23.284;2023-02-28T05:58:24;95332.44;;;14.44;49.68
30819;BME280;17546;42.674;23.284;2023-02-28T06:00:59;95328.41;;;14.45;49.65
30819;BME280;17546;42.674;23.284;2023-02-28T06:03:25;95325.09;;;14.52;49.48
30819;BME280;17546;42.674;23.284;2023-02-28T06:05:51;95330.69;;;14.69;49.31
30819;BME280;17546;42.674;23.284;2023-02-28T06:08:17;95329.16;;;14.68;49.22
30819;BME280;17546;42.674;23.284;2023-02-28T06:10:43;95327.16;;;14.63;49.24
30819;BME280;17546;42.674;23.284;2023-02-28T06:13:10;95333.75;;;14.32;49.59
30819;BME280;17546;42.674;23.284;2023-02-28T06:15:37;95325.38;;;14.60;49.08
30819;BME280;17546;42.674;23.284;2023-02-28T06:18:02;95321.81;;;14.65;49.23
30819;BME280;17546;42.674;23.284;2023-02-28T06:20:28;95326.13;;;14.60;49.43
30819;BME280;17546;42.674;23.284;2023-02-28T06:22:55;95331.19;;;14.67;49.02
30819;BME280;17546;42.674;23.284;2023-02-28T06:25:21;95319.03;;;14.37;49.51
30819;BME280;17546;42.674;23.284;2023-02-28T06:27:46;95325.88;;;14.64;48.93
30819;BME280;17546;42.674;23.284;2023-02-28T06:30:14;95321.78;;;14.82;48.85
30819;BME280;17546;42.674;23.284;2023-02-28T06:32:40;95332.16;;;14.81;49.08
30819;BME280;17546;42.674;23.284;2023-02-28T06:35:06;95338.28;;;14.80;49.09
30819;BME280;17546;42.674;23.284;2023-02-28T06:37:32;95337.00;;;14.81;49.05
30819;BME280;17546;42.674;23.284;2023-02-28T06:39:58;95346.91;;;14.59;49.53
30819;BME280;17546;42.674;23.284;2023-02-28T06:42:24;95349.94;;;14.73;49.34
30819;BME280;17546;42.674;23.284;2023-02-28T06:44:56;95352.00;;;14.66;49.74
30819;BME280;17546;42.674;23.284;2023-02-28T06:47:21;95353.50;;;14.56;50.06
30819;BME280;17546;42.674;23.284;2023-02-28T06:49:47;95354.47;;;14.87;49.36
30819;BME280;17546;42.674;23.284;2023-02-28T06:52:12;95353.22;;;14.77;49.54
30819;BME280;17546;42.674;23.284;2023-02-28T06:54:39;95353.47;;;14.79;49.37
30819;BME280;17546;42.674;23.284;2023-02-28T06:57:04;95353.72;;;14.81;49.61
30819;BME280;17546;42.674;23.284;2023-02-28T06:59:30;95355.19;;;15.04;49.00
30819;BME280;17546;42.674;23.284;2023-02-28T07:01:56;95361.53;;;15.11;48.89
30819;BME280;17546;42.674;23.284;2023-02-28T07:04:21;95360.56;;;14.91;49.28
30819;BME280;17546;42.674;23.284;2023-02-28T07:06:47;95349.84;;;15.18;48.47
30819;BME280;17546;42.674;23.284;2023-02-28T07:09:13;95344.88;;;14.54;49.34
30819;BME280;17546;42.674;23.284;2023-02-28T07:11:40;95355.78;;;14.30;49.72
30819;BME280;17546;42.674;23.284;2023-02-28T07:14:06;95358.78;;;14.88;48.72
30819;BME280;17546;42.674;23.284;2023-02-28T07:16:31;95353.94;;;15.00;48.18
30819;BME280;17546;42.674;23.284;2023-02-28T07:18:57;95353.16;;;15.05;48.16
30819;BME280;17546;42.674;23.284;2023-02-28T07:21:22;95360.00;;;15.09;48.77
30819;BME280;17546;42.674;23.284;2023-02-28T07:23:48;95362.81;;;15.04;48.58
30819;BME280;17546;42.674;23.284;2023-02-28T07:26:15;95359.53;;;14.94;48.83
30819;BME280;17546;42.674;23.284;2023-02-28T07:28:43;95360.59;;;14.80;48.94
30819;BME280;17546;42.674;23.284;2023-02-28T07:31:09;95354.00;;;14.72;48.98
30819;BME280;17546;42.674;23.284;2023-02-28T07:33:35;95350.22;;;14.35;49.73
30819;BME280;17546;42.674;23.284;2023-02-28T07:36:06;95359.81;;;14.74;49.22
30819;BME280;17546;42.674;23.284;2023-02-28T07:38:36;95358.06;;;14.59;49.55
30819;BME280;17546;42.674;23.284;2023-02-28T07:41:03;95361.34;;;14.63;49.24
30819;BME280;17546;42.674;23.284;2023-02-28T07:43:36;95365.69;;;14.64;49.62
30819;BME280;17546;42.674;23.284;2023-02-28T07:46:07;95359.09;;;14.56;49.60
30819;BME280;17546;42.674;23.284;2023-02-28T07:48:32;95356.53;;;14.47;49.54
30819;BME280;17546;42.674;23.284;2023-02-28T07:50:59;95357.78;;;14.74;49.06
30819;BME280;17546;42.674;23.284;2023-02-28T07:53:25;95349.94;;;14.50;49.61
30819;BME280;17546;42.674;23.284;2023-02-28T07:55:50;95349.69;;;14.54;49.80
30819;BME280;17546;42.674;23.284;2023-02-28T07:58:16;95353.00;;;14.63;49.72
30819;BME280;17546;42.674;23.284;2023-02-28T08:00:41;95351.97;;;14.78;49.31
30819;BME280;17546;42.674;23.284;2023-02-28T08:03:11;95359.28;;;14.98;49.19
30819;BME280;17546;42.674;23.284;2023-02-28T08:05:40;95347.41;;;14.86;49.33
30819;BME280;17546;42.674;23.284;2023-02-28T08:08:06;95348.59;;;15.07;48.75
30819;BME280;17546;42.674;23.284;2023-02-28T08:10:32;95349.34;;;15.14;48.34
30819;BME280;17546;42.674;23.284;2023-02-28T08:12:57;95350.31;;;15.22;48.29
30819;BME280;17546;42.674;23.284;2023-02-28T08:15:23;95355.91;;;15.22;48.58
30819;BME280;17546;42.674;23.284;2023-02-28T08:17:48;95359.19;;;15.26;48.40
30819;BME280;17546;42.674;23.284;2023-02-28T08:20:14;95357.47;;;15.12;48.87
30819;BME280;17546;42.674;23.284;2023-02-28T08:22:39;95357.72;;;15.14;48.54
30819;BME280;17546;42.674;23.284;2023-02-28T08:25:05;95353.94;;;14.94;49.12
30819;BME280;17546;42.674;23.284;2023-02-28T08:27:32;95359.56;;;14.83;49.28
30819;BME280;17546;42.674;23.284;2023-02-28T08:29:57;95354.53;;;14.59;50.12
30819;BME280;17546;42.674;23.284;2023-02-28T08:32:23;95362.88;;;14.42;50.52
30819;BME280;17546;42.674;23.284;2023-02-28T08:34:48;95365.16;;;14.43;50.81
30819;BME280;17546;42.674;23.284;2023-02-28T08:37:14;95362.88;;;14.42;50.70
30819;BME280;17546;42.674;23.284;2023-02-28T08:39:39;95359.25;;;13.62;52.65
30819;BME280;17546;42.674;23.284;2023-02-28T08:42:05;95368.91;;;13.90;52.26
30819;BME280;17546;42.674;23.284;2023-02-28T08:44:30;95368.19;;;14.17;51.60
30819;BME280;17546;42.674;23.284;2023-02-28T08:46:56;95366.16;;;14.12;51.99
30819;BME280;17546;42.674;23.284;2023-02-28T08:49:21;95362.13;;;14.47;51.14
30819;BME280;17546;42.674;23.284;2023-02-28T08:51:46;95349.69;;;14.59;50.87
30819;BME280;17546;42.674;23.284;2023-02-28T08:54:12;95364.38;;;14.54;51.08
30819;BME280;17546;42.674;23.284;2023-02-28T08:56:38;95361.63;;;14.71;50.61
30819;BME280;17546;42.674;23.284;2023-02-28T08:59:04;95355.81;;;14.58;50.67
30819;BME280;17546;42.674;23.284;2023-02-28T09:01:29;95371.47;;;14.72;50.94
30819;BME280;17546;42.674;23.284;2023-02-28T09:03:56;95371.25;;;14.59;51.14
30819;BME280;17546;42.674;23.284;2023-02-28T09:06:24;95367.66;;;14.53;51.22
30819;BME280;17546;42.674;23.284;2023-02-28T09:08:50;95354.25;;;14.29;51.67
30819;BME280;17546;42.674;23.284;2023-02-28T09:11:16;95361.09;;;14.50;51.34
30819;BME280;17546;42.674;23.284;2023-02-28T09:13:42;95359.56;;;14.66;50.91
30819;BME280;17546;42.674;23.284;2023-02-28T09:16:11;95364.66;;;14.67;51.20
30819;BME280;17546;42.674;23.284;2023-02-28T09:18:38;95366.19;;;14.57;51.32
30819;BME280;17546;42.674;23.284;2023-02-28T09:21:08;95358.56;;;14.30;51.97
30819;BME280;17546;42.674;23.284;2023-02-28T09:23:34;95359.06;;;14.22;52.11
30819;BME280;17546;42.674;23.284;2023-02-28T09:25:59;95354.75;;;14.50;51.51
30819;BME280;17546;42.674;23.284;2023-02-28T09:28:25;95354.75;;;14.50;51.83
30819;BME280;17546;42.674;23.284;2023-02-28T09:30:53;95344.34;;;14.73;51.50
30819;BME280;17546;42.674;23.284;2023-02-28T09:33:19;95357.78;;;14.74;51.36
30819;BME280;17546;42.674;23.284;2023-02-28T09:35:50;95354.78;;;14.66;51.33
30819;BME280;17546;42.674;23.284;2023-02-28T09:38:16;95358.28;;;14.95;50.80
30819;BME280;17546;42.674;23.284;2023-02-28T09:40:51;95358.78;;;14.99;50.94
30819;BME280;17546;42.674;23.284;2023-02-28T09:43:20;95358.50;;;15.08;50.73
30819;BME280;17546;42.674;23.284;2023-02-28T09:45:52;95353.41;;;15.13;51.48
30819;BME280;17546;42.674;23.284;2023-02-28T09:48:28;95353.94;;;14.94;51.06
30819;BME280;17546;42.674;23.284;2023-02-28T09:51:09;95345.28;;;15.15;50.66
30819;BME280;17546;42.674;23.284;2023-02-28T09:53:39;95345.44;;;15.34;50.04
30819;BME280;17546;42.674;23.284;2023-02-28T09:56:11;95348.66;;;15.55;49.78
30819;BME280;17546;42.674;23.284;2023-02-28T09:58:42;95346.56;;;15.72;49.33
30819;BME280;17546;42.674;23.284;2023-02-28T10:04:00;95341.44;;;15.76;49.59
30819;BME280;17546;42.674;23.284;2023-02-28T10:06:36;95336.47;;;15.58;49.81
30819;BME280;17546;42.674;23.284;2023-02-28T10:09:11;95339.63;;;15.84;49.66
30819;BME280;17546;42.674;23.284;2023-02-28T10:11:40;95324.09;;;15.95;49.49
30819;BME280;17546;42.674;23.284;2023-02-28T10:14:18;95327.66;;;16.25;49.16
30819;BME280;17546;42.674;23.284;2023-02-28T10:22:23;95325.56;;;16.62;48.33
30819;BME280;17546;42.674;23.284;2023-02-28T10:24:53;95304.97;;;16.65;48.49
30819;BME280;17546;42.674;23.284;2023-02-28T10:27:24;95313.19;;;16.82;48.20
30819;BME280;17546;42.674;23.284;2023-02-28T10:29:56;95311.69;;;16.81;48.20
30819;BME280;17546;42.674;23.284;2023-02-28T10:32:27;95305.72;;;16.65;48.30
30819;BME280;17546;42.674;23.284;2023-02-28T10:35:30;95295.84;;;16.89;47.72
30819;BME280;17546;42.674;23.284;2023-02-28T10:38:00;95298.13;;;17.09;47.81
30819;BME280;17546;42.674;23.284;2023-02-28T10:40:34;95291.94;;;16.98;47.90
30819;BME280;17546;42.674;23.284;2023-02-28T10:45:28;95280.59;;;17.28;47.52
30819;BME280;17546;42.674;23.284;2023-02-28T10:48:03;95270.84;;;17.16;47.47
30819;BME280;17546;42.674;23.284;2023-02-28T10:50:44;95266.22;;;17.37;47.60
30819;BME280;17546;42.674;23.284;2023-02-28T10:56:05;95259.41;;;17.51;46.21
30819;BME280;17546;42.674;23.284;2023-02-28T11:01:43;95254.22;;;17.42;46.96
30819;BME280;17546;42.674;23.284;2023-02-28T11:04:32;95247.59;;;17.59;46.40
30819;BME280;17546;42.674;23.284;2023-02-28T11:07:16;95245.59;;;17.91;45.89
30819;BME280;17546;42.674;23.284;2023-02-28T11:09:46;95233.31;;;17.94;45.59
30819;BME280;17546;42.674;23.284;2023-02-28T11:12:35;95236.38;;;17.77;45.40
30819;BME280;17546;42.674;23.284;2023-02-28T11:15:05;95238.34;;;18.15;45.35
30819;BME280;17546;42.674;23.284;2023-02-28T11:17:32;95236.16;;;18.08;45.09
30819;BME280;17546;42.674;23.284;2023-02-28T11:20:05;95230.84;;;17.72;45.45
30819;BME280;17546;42.674;23.284;2023-02-28T11:22:52;95230.16;;;17.66;45.05
30819;BME280;17546;42.674;23.284;2023-02-28T11:25:26;95222.38;;;17.77;44.88
30819;BME280;17546;42.674;23.284;2023-02-28T11:28:43;95224.03;;;17.86;44.56
30819;BME280;17546;42.674;23.284;2023-02-28T11:33:49;95227.94;;;17.96;44.94
30819;BME280;17546;42.674;23.284;2023-02-28T11:38:44;95216.97;;;18.12;44.89
30819;BME280;17546;42.674;23.284;2023-02-28T11:52:15;95226.47;;;18.81;43.38
30819;BME280;17546;42.674;23.284;2023-02-28T11:55:14;95217.19;;;18.14;43.86
30819;BME280;17546;42.674;23.284;2023-02-28T12:10:37;95225.91;;;18.83;44.04
30819;BME280;17546;42.674;23.284;2023-02-28T12:13:29;95213.72;;;18.80;43.34
30819;BME280;17546;42.674;23.284;2023-02-28T12:26:58;95208.66;;;18.65;42.51
30819;BME280;17546;42.674;23.284;2023-02-28T12:29:28;95212.31;;;18.87;42.72
30819;BME280;17546;42.674;23.284;2023-02-28T12:34:37;95205.94;;;18.59;42.87
30819;BME280;17546;42.674;23.284;2023-02-28T12:37:10;95208.13;;;18.80;42.67
30819;BME280;17546;42.674;23.284;2023-02-28T12:39:46;95208.19;;;19.14;42.66
30819;BME280;17546;42.674;23.284;2023-02-28T12:42:52;95199.78;;;18.21;43.11
30819;BME280;17546;42.674;23.284;2023-02-28T12:45:23;95201.25;;;18.22;42.79
30819;BME280;17546;42.674;23.284;2023-02-28T12:48:00;95194.41;;;18.36;42.97
30819;BME280;17546;42.674;23.284;2023-02-28T12:50:29;95192.78;;;18.54;42.36
30819;BME280;17546;42.674;23.284;2023-02-28T12:53:15;95187.78;;;18.21;42.96
30819;BME280;17546;42.674;23.284;2023-02-28T12:58:34;95197.84;;;18.69;42.17
30819;BME280;17546;42.674;23.284;2023-02-28T13:03:49;95184.59;;;18.70;42.05
30819;BME280;17546;42.674;23.284;2023-02-28T13:09:05;95188.00;;;19.16;41.44
30819;BME280;17546;42.674;23.284;2023-02-28T13:14:16;95189.66;;;18.85;42.05
30819;BME280;17546;42.674;23.284;2023-02-28T13:16:51;95194.03;;;18.27;42.31
30819;BME280;17546;42.674;23.284;2023-02-28T13:19:20;95194.81;;;18.67;42.54
30819;BME280;17546;42.674;23.284;2023-02-28T13:21:47;95184.69;;;18.37;43.50
30819;BME280;17546;42.674;23.284;2023-02-28T13:27:20;95186.59;;;18.43;42.98
30819;BME280;17546;42.674;23.284;2023-02-28T13:29:50;95184.25;;;18.60;43.39
30819;BME280;17546;42.674;23.284;2023-02-28T13:47:45;95162.63;;;17.88;43.16
30819;BME280;17546;42.674;23.284;2023-02-28T14:00:57;95158.59;;;17.51;43.36
30819;BME280;17546;42.674;23.284;2023-02-28T14:06:56;95159.97;;;17.26;44.25
30819;BME280;17546;42.674;23.284;2023-02-28T14:09:28;95159.88;;;17.50;43.19
30819;BME280;17546;42.674;23.284;2023-02-28T14:11:55;95157.88;;;17.13;44.02
30819;BME280;17546;42.674;23.284;2023-02-28T14:17:08;95161.03;;;17.74;42.92
30819;BME280;17546;42.674;23.284;2023-02-28T14:19:38;95158.31;;;18.01;42.79
30819;BME280;17546;42.674;23.284;2023-02-28T14:27:24;95156.63;;;18.37;42.37
30819;BME280;17546;42.674;23.284;2023-02-28T14:36:14;95159.41;;;17.98;42.79
30819;BME280;17546;42.674;23.284;2023-02-28T14:38:50;95158.56;;;17.70;43.36
30819;BME280;17546;42.674;23.284;2023-02-28T14:41:30;95163.41;;;18.15;42.96
30819;BME280;17546;42.674;23.284;2023-02-28T14:44:00;95158.19;;;17.93;42.38
30819;BME280;17546;42.674;23.284;2023-02-28T14:46:36;95156.81;;;18.00;43.00
30819;BME280;17546;42.674;23.284;2023-02-28T14:49:12;95160.09;;;18.30;42.42
30819;BME280;17546;42.674;23.284;2023-02-28T14:51:38;95151.66;;;18.04;43.22
30819;BME280;17546;42.674;23.284;2023-02-28T14:54:04;95167.81;;;18.11;42.67
30819;BME280;17546;42.674;23.284;2023-02-28T14:56:35;95154.16;;;17.75;43.17
30819;BME280;17546;42.674;23.284;2023-02-28T14:59:02;95162.06;;;17.90;42.90
30819;BME280;17546;42.674;23.284;2023-02-28T15:01:28;95165.16;;;17.54;44.02
30819;BME280;17546;42.674;23.284;2023-02-28T15:04:03;95164.50;;;17.48;43.91
30819;BME280;17546;42.674;23.284;2023-02-28T15:06:29;95159.66;;;17.48;44.36
30819;BME280;17546;42.674;23.284;2023-02-28T15:09:16;95156.34;;;17.63;43.90
30819;BME280;17546;42.674;23.284;2023-02-28T15:11:46;95152.50;;;17.34;44.14
30819;BME280;17546;42.674;23.284;2023-02-28T15:14:19;95148.03;;;17.06;44.70
30819;BME280;17546;42.674;23.284;2023-02-28T15:16:48;95150.41;;;17.02;44.86
30819;BME280;17546;42.674;23.284;2023-02-28T15:19:34;95152.91;;;16.87;45.23
30819;BME280;17546;42.674;23.284;2023-02-28T15:22:16;95159.09;;;17.18;44.54
30819;BME280;17546;42.674;23.284;2023-02-28T15:24:48;95150.41;;;17.02;44.75